sensor_id;sensor_type;location;lat;lon;timestamp;pressure;altitude;pressure_sealevel;temperature;humidity
48796;BME280;34607;48.520;-1.330;2023-05-20T07:14:36;100751.03;;;12.66;95.79
48796;BME280;34607;48.520;-1.330;2023-05-20T07:17:04;100758.25;;;12.89;96.00
48796;BME280;34607;48.520;-1.330;2023-05-20T07:19:31;100760.22;;;13.08;94.57
48796;BME280;34607;48.520;-1.330;2023-05-20T07:21:58;100752.53;;;13.15;93.93
48796;BME280;34607;48.520;-1.330;2023-05-20T07:24:44;100749.38;;;13.40;93.40
48796;BME280;34607;48.520;-1.330;2023-05-20T07:27:11;100754.00;;;13.66;92.92
48796;BME280;34607;48.520;-1.330;2023-05-20T07:29:40;100753.28;;;13.84;91.85
48796;BME280;34607;48.520;-1.330;2023-05-20T07:32:08;100752.47;;;13.91;91.44
48796;BME280;34607;48.520;-1.330;2023-05-20T07:34:36;100747.19;;;13.82;90.53
48796;BME280;34607;48.520;-1.330;2023-05-20T07:37:03;100748.25;;;14.02;90.07
48796;BME280;34607;48.520;-1.330;2023-05-20T07:39:31;100744.91;;;14.20;89.80
48796;BME280;34607;48.520;-1.330;2023-05-20T07:41:58;100736.50;;;14.57;89.36
48796;BME280;34607;48.520;-1.330;2023-05-20T07:44:26;100732.28;;;14.76;88.16
48796;BME280;34607;48.520;-1.330;2023-05-20T07:46:55;100729.69;;;14.77;87.31
48796;BME280;34607;48.520;-1.330;2023-05-20T07:49:22;100727.06;;;14.76;87.65
48796;BME280;34607;48.520;-1.330;2023-05-20T07:51:49;100726.28;;;14.88;86.96
48796;BME280;34607;48.520;-1.330;2023-05-20T07:54:16;100715.88;;;14.97;86.83
48796;BME280;34607;48.520;-1.330;2023-05-20T07:56:46;100727.19;;;15.02;85.61
48796;BME280;34607;48.520;-1.330;2023-05-20T07:59:13;100719.38;;;15.05;85.53
48796;BME280;34607;48.520;-1.330;2023-05-20T08:01:46;100728.97;;;15.11;85.67
48796;BME280;34607;48.520;-1.330;2023-05-20T08:04:17;100729.03;;;15.29;85.26
48796;BME280;34607;48.520;-1.330;2023-05-20T08:06:45;100728.16;;;15.29;84.70
48796;BME280;34607;48.520;-1.330;2023-05-20T08:09:19;100728.22;;;15.66;84.88
48796;BME280;34607;48.520;-1.330;2023-05-20T08:11:50;100729.16;;;16.06;83.79
48796;BME280;34607;48.520;-1.330;2023-05-20T08:14:17;100734.41;;;16.11;82.32
48796;BME280;34607;48.520;-1.330;2023-05-20T08:16:48;100726.53;;;15.86;82.30
48796;BME280;34607;48.520;-1.330;2023-05-20T08:19:16;100723.94;;;16.02;82.73
48796;BME280;34607;48.520;-1.330;2023-05-20T08:21:46;100718.72;;;15.89;81.81
48796;BME280;34607;48.520;-1.330;2023-05-20T08:24:13;100716.09;;;16.02;81.87
48796;BME280;34607;48.520;-1.330;2023-05-20T08:26:40;100716.13;;;15.96;81.68
48796;BME280;34607;48.520;-1.330;2023-05-20T08:29:07;100703.91;;;16.13;81.88
48796;BME280;34607;48.520;-1.330;2023-05-20T08:31:34;100714.25;;;16.69;81.40
48796;BME280;34607;48.520;-1.330;2023-05-20T08:34:02;100716.84;;;16.75;79.55
48796;BME280;34607;48.520;-1.330;2023-05-20T08:36:30;100720.31;;;16.89;79.68
48796;BME280;34607;48.520;-1.330;2023-05-20T08:38:58;100714.16;;;17.04;79.18
48796;BME280;34607;48.520;-1.330;2023-05-20T08:41:27;100710.69;;;17.00;78.94
48796;BME280;34607;48.520;-1.330;2023-05-20T08:43:55;100712.38;;;17.14;78.92
48796;BME280;34607;48.520;-1.330;2023-05-20T08:46:24;100720.13;;;17.32;78.31
48796;BME280;34607;48.520;-1.330;2023-05-20T08:48:54;100722.78;;;17.21;77.03
48796;BME280;34607;48.520;-1.330;2023-05-20T08:51:22;100725.31;;;17.40;78.02
48796;BME280;34607;48.520;-1.330;2023-05-20T08:53:54;100709.41;;;17.74;77.34
48796;BME280;34607;48.520;-1.330;2023-05-20T08:56:21;100699.50;;;18.11;76.75
48796;BME280;34607;48.520;-1.330;2023-05-20T08:58:51;100708.25;;;18.07;75.79
48796;BME280;34607;48.520;-1.330;2023-05-20T09:01:22;100708.06;;;18.29;75.44
48796;BME280;34607;48.520;-1.330;2023-05-20T09:03:49;100705.88;;;18.71;75.35
48796;BME280;34607;48.520;-1.330;2023-05-20T09:06:18;100704.19;;;18.67;74.41
48796;BME280;34607;48.520;-1.330;2023-05-20T09:08:45;100710.13;;;18.80;75.25
48796;BME280;34607;48.520;-1.330;2023-05-20T09:11:13;100707.75;;;18.61;74.41
48796;BME280;34607;48.520;-1.330;2023-05-20T09:13:40;100701.53;;;18.70;73.86
48796;BME280;34607;48.520;-1.330;2023-05-20T09:16:09;100697.94;;;18.77;73.61
48796;BME280;34607;48.520;-1.330;2023-05-20T09:18:37;100691.84;;;18.75;72.95
48796;BME280;34607;48.520;-1.330;2023-05-20T09:21:04;100687.06;;;19.09;72.85
48796;BME280;34607;48.520;-1.330;2023-05-20T09:23:32;100686.09;;;19.15;72.59
48796;BME280;34607;48.520;-1.330;2023-05-20T09:26:02;100686.22;;;19.09;72.18
48796;BME280;34607;48.520;-1.330;2023-05-20T09:28:31;100675.50;;;19.23;71.45
48796;BME280;34607;48.520;-1.330;2023-05-20T09:31:00;100675.75;;;19.65;71.41
48796;BME280;34607;48.520;-1.330;2023-05-20T09:33:28;100681.75;;;19.72;70.72
48796;BME280;34607;48.520;-1.330;2023-05-20T09:36:02;100677.09;;;19.35;71.29
48796;BME280;34607;48.520;-1.330;2023-05-20T09:38:30;100679.91;;;19.80;72.31
48796;BME280;34607;48.520;-1.330;2023-05-20T09:41:05;100670.00;;;19.96;70.07
48796;BME280;34607;48.520;-1.330;2023-05-20T09:43:34;100677.50;;;20.19;69.71
48796;BME280;34607;48.520;-1.330;2023-05-20T09:46:03;100657.56;;;20.07;68.97
48796;BME280;34607;48.520;-1.330;2023-05-20T09:48:30;100676.34;;;19.84;70.31
48796;BME280;34607;48.520;-1.330;2023-05-20T09:51:00;100675.16;;;20.02;69.93
48796;BME280;34607;48.520;-1.330;2023-05-20T09:53:27;100666.06;;;20.20;69.10
48796;BME280;34607;48.520;-1.330;2023-05-20T09:55:54;100671.81;;;20.40;68.82
48796;BME280;34607;48.520;-1.330;2023-05-20T09:58:22;100666.94;;;20.69;68.42
48796;BME280;34607;48.520;-1.330;2023-05-20T10:00:51;100664.88;;;20.82;67.76
48796;BME280;34607;48.520;-1.330;2023-05-20T10:03:20;100659.75;;;20.30;67.42
48796;BME280;34607;48.520;-1.330;2023-05-20T10:06:00;100661.50;;;20.31;67.98
48796;BME280;34607;48.520;-1.330;2023-05-20T10:08:41;100655.47;;;20.25;66.44
48796;BME280;34607;48.520;-1.330;2023-05-20T10:11:13;100662.88;;;19.48;67.41
48796;BME280;34607;48.520;-1.330;2023-05-20T10:13:56;100653.63;;;19.80;68.18
48796;BME280;34607;48.520;-1.330;2023-05-20T10:16:39;100647.69;;;20.18;68.49
48796;BME280;34607;48.520;-1.330;2023-05-20T10:19:27;100640.44;;;20.76;66.74
48796;BME280;34607;48.520;-1.330;2023-05-20T10:21:59;100648.00;;;20.48;66.40
48796;BME280;34607;48.520;-1.330;2023-05-20T10:24:31;100636.84;;;20.35;66.32
48796;BME280;34607;48.520;-1.330;2023-05-20T10:27:00;100642.28;;;20.26;65.74
48796;BME280;34607;48.520;-1.330;2023-05-20T10:29:27;100637.56;;;19.98;66.61
48796;BME280;34607;48.520;-1.330;2023-05-20T10:31:55;100641.50;;;20.23;66.77
48796;BME280;34607;48.520;-1.330;2023-05-20T10:34:23;100635.09;;;20.36;66.58
48796;BME280;34607;48.520;-1.330;2023-05-20T10:36:59;100624.28;;;20.93;65.01
48796;BME280;34607;48.520;-1.330;2023-05-20T10:39:27;100637.34;;;20.98;66.09
48796;BME280;34607;48.520;-1.330;2023-05-20T10:42:05;100630.56;;;21.27;64.32
48796;BME280;34607;48.520;-1.330;2023-05-20T10:44:42;100599.28;;;21.13;63.32
48796;BME280;34607;48.520;-1.330;2023-05-20T10:47:11;100621.00;;;21.21;63.92
48796;BME280;34607;48.520;-1.330;2023-05-20T10:49:40;100625.41;;;21.21;64.09
48796;BME280;34607;48.520;-1.330;2023-05-20T10:52:09;100636.03;;;20.79;64.87
48796;BME280;34607;48.520;-1.330;2023-05-20T10:54:42;100625.84;;;21.02;64.80
48796;BME280;34607;48.520;-1.330;2023-05-20T10:57:10;100616.66;;;21.20;64.52
48796;BME280;34607;48.520;-1.330;2023-05-20T10:59:37;100616.03;;;21.82;63.90
48796;BME280;34607;48.520;-1.330;2023-05-20T11:02:04;100623.53;;;21.98;63.54
48796;BME280;34607;48.520;-1.330;2023-05-20T11:04:33;100619.84;;;21.70;61.77
48796;BME280;34607;48.520;-1.330;2023-05-20T11:07:00;100610.72;;;21.10;62.75
48796;BME280;34607;48.520;-1.330;2023-05-20T11:09:27;100610.94;;;21.03;62.54
48796;BME280;34607;48.520;-1.330;2023-05-20T11:11:55;100609.72;;;21.54;62.70
48796;BME280;34607;48.520;-1.330;2023-05-20T11:14:22;100611.88;;;21.36;62.75
48796;BME280;34607;48.520;-1.330;2023-05-20T11:16:55;100598.22;;;21.58;62.85
48796;BME280;34607;48.520;-1.330;2023-05-20T11:19:22;100613.72;;;21.32;63.31
48796;BME280;34607;48.520;-1.330;2023-05-20T11:21:51;100571.16;;;21.13;62.86
48796;BME280;34607;48.520;-1.330;2023-05-20T11:24:23;100609.94;;;20.66;61.79
48796;BME280;34607;48.520;-1.330;2023-05-20T11:26:51;100609.94;;;20.66;62.43
48796;BME280;34607;48.520;-1.330;2023-05-20T11:29:19;100593.19;;;21.09;61.87
48796;BME280;34607;48.520;-1.330;2023-05-20T11:31:48;100601.09;;;21.45;61.10
48796;BME280;34607;48.520;-1.330;2023-05-20T11:34:16;100592.25;;;21.13;60.65
48796;BME280;34607;48.520;-1.330;2023-05-20T11:36:45;100594.38;;;20.98;61.48
48796;BME280;34607;48.520;-1.330;2023-05-20T11:39:14;100590.16;;;21.26;61.03
48796;BME280;34607;48.520;-1.330;2023-05-20T11:41:41;100592.91;;;21.94;61.63
48796;BME280;34607;48.520;-1.330;2023-05-20T11:44:09;100597.09;;;22.01;60.32
48796;BME280;34607;48.520;-1.330;2023-05-20T11:46:41;100580.22;;;22.06;59.72
48796;BME280;34607;48.520;-1.330;2023-05-20T11:49:11;100582.41;;;22.23;59.88
48796;BME280;34607;48.520;-1.330;2023-05-20T11:51:39;100562.50;;;21.80;59.85
48796;BME280;34607;48.520;-1.330;2023-05-20T11:54:07;100583.66;;;22.10;59.94
48796;BME280;34607;48.520;-1.330;2023-05-20T11:56:37;100580.13;;;22.42;59.49
48796;BME280;34607;48.520;-1.330;2023-05-20T11:59:08;100571.19;;;22.15;59.15
48796;BME280;34607;48.520;-1.330;2023-05-20T12:01:37;100574.44;;;21.94;59.24
48796;BME280;34607;48.520;-1.330;2023-05-20T12:04:05;100574.09;;;21.39;59.84
48796;BME280;34607;48.520;-1.330;2023-05-20T12:06:32;100571.81;;;20.86;61.27
48796;BME280;34607;48.520;-1.330;2023-05-20T12:09:01;100570.63;;;21.35;60.81
48796;BME280;34607;48.520;-1.330;2023-05-20T12:11:32;100565.31;;;21.37;60.75
48796;BME280;34607;48.520;-1.330;2023-05-20T12:14:00;100561.56;;;21.81;61.15
48796;BME280;34607;48.520;-1.330;2023-05-20T12:16:29;100556.69;;;22.00;60.70
48796;BME280;34607;48.520;-1.330;2023-05-20T12:18:57;100553.38;;;22.23;60.48
48796;BME280;34607;48.520;-1.330;2023-05-20T12:21:24;100559.63;;;22.21;60.48
48796;BME280;34607;48.520;-1.330;2023-05-20T12:23:51;100553.81;;;21.77;60.69
48796;BME280;34607;48.520;-1.330;2023-05-20T12:26:22;100560.06;;;22.05;60.52
48796;BME280;34607;48.520;-1.330;2023-05-20T12:28:49;100553.97;;;22.65;60.60
48796;BME280;34607;48.520;-1.330;2023-05-20T12:31:18;100562.25;;;22.52;59.88
48796;BME280;34607;48.520;-1.330;2023-05-20T12:33:45;100559.16;;;21.74;61.38
48796;BME280;34607;48.520;-1.330;2023-05-20T12:36:13;100560.03;;;21.73;60.81
48796;BME280;34607;48.520;-1.330;2023-05-20T12:38:40;100561.06;;;22.33;60.98
48796;BME280;34607;48.520;-1.330;2023-05-20T12:41:07;100549.34;;;22.10;60.54
48796;BME280;34607;48.520;-1.330;2023-05-20T12:43:34;100541.09;;;22.54;60.53
48796;BME280;34607;48.520;-1.330;2023-05-20T12:46:02;100546.03;;;22.36;59.97
48796;BME280;34607;48.520;-1.330;2023-05-20T12:48:30;100522.16;;;22.08;61.15
48796;BME280;34607;48.520;-1.330;2023-05-20T12:50:58;100558.66;;;22.23;61.26
48796;BME280;34607;48.520;-1.330;2023-05-20T12:53:25;100544.66;;;21.90;60.40
48796;BME280;34607;48.520;-1.330;2023-05-20T12:55:52;100562.44;;;22.15;60.55
48796;BME280;34607;48.520;-1.330;2023-05-20T12:58:19;100544.25;;;22.05;60.86
48796;BME280;34607;48.520;-1.330;2023-05-20T13:00:46;100541.97;;;22.54;60.54
48796;BME280;34607;48.520;-1.330;2023-05-20T13:03:13;100527.06;;;21.58;60.97
48796;BME280;34607;48.520;-1.330;2023-05-20T13:05:41;100549.63;;;21.69;60.97
48796;BME280;34607;48.520;-1.330;2023-05-20T13:08:08;100540.00;;;21.98;60.86
48796;BME280;34607;48.520;-1.330;2023-05-20T13:10:37;100540.44;;;21.83;61.00
48796;BME280;34607;48.520;-1.330;2023-05-20T13:13:04;100549.50;;;22.05;60.79
48796;BME280;34607;48.520;-1.330;2023-05-20T13:15:31;100534.75;;;21.98;60.34
48796;BME280;34607;48.520;-1.330;2023-05-20T13:17:58;100544.44;;;22.29;61.05
48796;BME280;34607;48.520;-1.330;2023-05-20T13:20:28;100536.81;;;22.18;60.77
48796;BME280;34607;48.520;-1.330;2023-05-20T13:22:56;100548.75;;;22.33;60.80
48796;BME280;34607;48.520;-1.330;2023-05-20T13:25:24;100532.91;;;22.33;60.63
48796;BME280;34607;48.520;-1.330;2023-05-20T13:27:51;100541.47;;;21.77;61.50
48796;BME280;34607;48.520;-1.330;2023-05-20T13:30:18;100538.47;;;21.22;62.02
48796;BME280;34607;48.520;-1.330;2023-05-20T13:32:45;100533.34;;;21.52;61.67
48796;BME280;34607;48.520;-1.330;2023-05-20T13:35:12;100533.84;;;21.68;61.25
48796;BME280;34607;48.520;-1.330;2023-05-20T13:37:39;100526.56;;;21.76;61.42
48796;BME280;34607;48.520;-1.330;2023-05-20T13:40:08;100543.41;;;21.36;60.97
48796;BME280;34607;48.520;-1.330;2023-05-20T13:42:36;100536.72;;;21.21;60.60
48796;BME280;34607;48.520;-1.330;2023-05-20T13:45:03;100523.69;;;21.53;61.02
48796;BME280;34607;48.520;-1.330;2023-05-20T13:47:30;100520.25;;;21.83;60.78
48796;BME280;34607;48.520;-1.330;2023-05-20T13:49:58;100512.75;;;21.99;60.45
48796;BME280;34607;48.520;-1.330;2023-05-20T13:52:25;100524.00;;;22.06;60.07
48796;BME280;34607;48.520;-1.330;2023-05-20T13:54:52;100522.88;;;21.83;60.64
48796;BME280;34607;48.520;-1.330;2023-05-20T13:57:20;100511.63;;;21.77;61.40
48796;BME280;34607;48.520;-1.330;2023-05-20T13:59:48;100510.84;;;21.39;61.83
48796;BME280;34607;48.520;-1.330;2023-05-20T14:02:15;100506.09;;;21.53;62.29
48796;BME280;34607;48.520;-1.330;2023-05-20T14:04:42;100504.63;;;21.76;61.88
48796;BME280;34607;48.520;-1.330;2023-05-20T14:07:11;100502.78;;;21.78;61.50
48796;BME280;34607;48.520;-1.330;2023-05-20T14:09:38;100506.44;;;21.39;61.73
48796;BME280;34607;48.520;-1.330;2023-05-20T14:12:06;100503.66;;;21.09;61.79
48796;BME280;34607;48.520;-1.330;2023-05-20T14:14:34;100494.34;;;20.57;62.92
48796;BME280;34607;48.520;-1.330;2023-05-20T14:17:01;100498.50;;;20.69;63.94
48796;BME280;34607;48.520;-1.330;2023-05-20T14:19:28;100500.81;;;20.83;63.44
48796;BME280;34607;48.520;-1.330;2023-05-20T14:21:55;100490.56;;;20.72;63.70
48796;BME280;34607;48.520;-1.330;2023-05-20T14:24:25;100488.72;;;20.75;63.70
48796;BME280;34607;48.520;-1.330;2023-05-20T14:26:52;100495.38;;;20.51;64.16
48796;BME280;34607;48.520;-1.330;2023-05-20T14:29:19;100486.25;;;20.68;63.50
48796;BME280;34607;48.520;-1.330;2023-05-20T14:31:48;100488.22;;;20.58;63.82
48796;BME280;34607;48.520;-1.330;2023-05-20T14:34:15;100497.00;;;19.70;65.05
48796;BME280;34607;48.520;-1.330;2023-05-20T14:36:42;100482.22;;;20.11;65.37
48796;BME280;34607;48.520;-1.330;2023-05-20T14:39:09;100499.66;;;19.68;65.76
48796;BME280;34607;48.520;-1.330;2023-05-20T14:41:36;100496.84;;;19.79;66.38
48796;BME280;34607;48.520;-1.330;2023-05-20T14:44:03;100495.66;;;19.95;64.82
48796;BME280;34607;48.520;-1.330;2023-05-20T14:46:31;100494.69;;;19.99;65.56
48796;BME280;34607;48.520;-1.330;2023-05-20T14:48:59;100499.59;;;20.18;65.70
48796;BME280;34607;48.520;-1.330;2023-05-20T14:51:26;100492.97;;;19.98;65.47
48796;BME280;34607;48.520;-1.330;2023-05-20T14:53:53;100488.69;;;19.93;65.76
48796;BME280;34607;48.520;-1.330;2023-05-20T14:56:20;100496.34;;;20.05;65.58
48796;BME280;34607;48.520;-1.330;2023-05-20T14:58:47;100482.41;;;20.42;65.02
48796;BME280;34607;48.520;-1.330;2023-05-20T15:01:14;100484.03;;;20.87;65.24
48796;BME280;34607;48.520;-1.330;2023-05-20T15:03:42;100472.56;;;20.52;64.52
48796;BME280;34607;48.520;-1.330;2023-05-20T15:06:10;100459.47;;;20.08;64.82
48796;BME280;34607;48.520;-1.330;2023-05-20T15:08:37;100481.75;;;20.32;65.48
48796;BME280;34607;48.520;-1.330;2023-05-20T15:11:04;100495.31;;;20.14;65.35
48796;BME280;34607;48.520;-1.330;2023-05-20T15:13:31;100493.00;;;19.97;65.10
48796;BME280;34607;48.520;-1.330;2023-05-20T15:15:58;100491.97;;;20.06;65.46
48796;BME280;34607;48.520;-1.330;2023-05-20T15:18:25;100486.59;;;20.12;64.82
48796;BME280;34607;48.520;-1.330;2023-05-20T15:20:52;100491.97;;;20.06;65.17
48796;BME280;34607;48.520;-1.330;2023-05-20T15:23:21;100489.47;;;19.98;65.66
48796;BME280;34607;48.520;-1.330;2023-05-20T15:25:48;100494.38;;;19.70;65.67
48796;BME280;34607;48.520;-1.330;2023-05-20T15:28:15;100483.94;;;19.18;67.36
48796;BME280;34607;48.520;-1.330;2023-05-20T15:30:44;100481.22;;;19.23;66.97
48796;BME280;34607;48.520;-1.330;2023-05-20T15:33:11;100477.75;;;19.21;66.89
48796;BME280;34607;48.520;-1.330;2023-05-20T15:35:38;100474.00;;;19.36;67.07
48796;BME280;34607;48.520;-1.330;2023-05-20T15:38:05;100480.75;;;19.49;67.56
48796;BME280;34607;48.520;-1.330;2023-05-20T15:40:34;100471.22;;;19.45;66.62
48796;BME280;34607;48.520;-1.330;2023-05-20T15:43:01;100455.91;;;19.19;67.53
48796;BME280;34607;48.520;-1.330;2023-05-20T15:45:30;100466.28;;;19.26;67.78
48796;BME280;34607;48.520;-1.330;2023-05-20T15:47:57;100469.66;;;19.35;67.45
48796;BME280;34607;48.520;-1.330;2023-05-20T15:50:24;100463.00;;;19.62;67.19
48796;BME280;34607;48.520;-1.330;2023-05-20T15:52:53;100454.16;;;19.68;66.74
48796;BME280;34607;48.520;-1.330;2023-05-20T15:55:20;100457.38;;;19.35;66.75
48796;BME280;34607;48.520;-1.330;2023-05-20T15:57:49;100456.81;;;19.18;67.79
48796;BME280;34607;48.520;-1.330;2023-05-20T16:00:17;100438.63;;;19.05;67.26
48796;BME280;34607;48.520;-1.330;2023-05-20T16:02:45;100455.22;;;19.09;67.04
48796;BME280;34607;48.520;-1.330;2023-05-20T16:05:12;100450.06;;;19.03;67.52
48796;BME280;34607;48.520;-1.330;2023-05-20T16:07:40;100451.38;;;19.27;67.41
48796;BME280;34607;48.520;-1.330;2023-05-20T16:10:08;100455.88;;;19.20;66.99
48796;BME280;34607;48.520;-1.330;2023-05-20T16:12:36;100456.91;;;19.12;67.01
48796;BME280;34607;48.520;-1.330;2023-05-20T16:15:05;100450.84;;;19.08;67.29
48796;BME280;34607;48.520;-1.330;2023-05-20T16:17:32;100457.69;;;19.18;67.94
48796;BME280;34607;48.520;-1.330;2023-05-20T16:19:59;100457.44;;;19.31;67.35
48796;BME280;34607;48.520;-1.330;2023-05-20T16:22:27;100450.59;;;19.22;66.66
48796;BME280;34607;48.520;-1.330;2023-05-20T16:24:54;100456.72;;;19.22;66.32
48796;BME280;34607;48.520;-1.330;2023-05-20T16:27:21;100459.44;;;19.18;66.34
48796;BME280;34607;48.520;-1.330;2023-05-20T16:29:49;100442.03;;;19.11;66.59
48796;BME280;34607;48.520;-1.330;2023-05-20T16:32:17;100451.59;;;19.16;66.41
48796;BME280;34607;48.520;-1.330;2023-05-20T16:34:46;100448.06;;;19.17;66.62
48796;BME280;34607;48.520;-1.330;2023-05-20T16:37:13;100440.06;;;19.25;66.46
48796;BME280;34607;48.520;-1.330;2023-05-20T16:39:40;100438.56;;;19.10;66.83
48796;BME280;34607;48.520;-1.330;2023-05-20T16:42:07;100440.38;;;19.06;66.60
48796;BME280;34607;48.520;-1.330;2023-05-20T16:44:34;100438.44;;;19.18;66.24
48796;BME280;34607;48.520;-1.330;2023-05-20T16:47:04;100439.50;;;19.07;66.92
48796;BME280;34607;48.520;-1.330;2023-05-20T16:49:32;100436.25;;;18.92;66.76
48796;BME280;34607;48.520;-1.330;2023-05-20T16:51:59;100444.09;;;18.93;67.18
48796;BME280;34607;48.520;-1.330;2023-05-20T16:54:26;100448.47;;;18.93;67.27
48796;BME280;34607;48.520;-1.330;2023-05-20T16:56:53;100439.94;;;18.78;66.86
48796;BME280;34607;48.520;-1.330;2023-05-20T16:59:21;100447.88;;;18.74;67.38
48796;BME280;34607;48.520;-1.330;2023-05-20T17:01:49;100443.06;;;18.46;66.26
48796;BME280;34607;48.520;-1.330;2023-05-20T17:04:16;100447.38;;;18.48;66.10
48796;BME280;34607;48.520;-1.330;2023-05-20T17:06:44;100440.34;;;18.50;66.06
48796;BME280;34607;48.520;-1.330;2023-05-20T17:09:14;100440.47;;;18.44;66.93
48796;BME280;34607;48.520;-1.330;2023-05-20T17:11:41;100445.88;;;18.32;66.04
48796;BME280;34607;48.520;-1.330;2023-05-20T17:14:08;100446.75;;;18.31;66.35
48796;BME280;34607;48.520;-1.330;2023-05-20T17:16:35;100453.69;;;18.35;66.59
48796;BME280;34607;48.520;-1.330;2023-05-20T17:19:02;100445.13;;;18.24;65.90
48796;BME280;34607;48.520;-1.330;2023-05-20T17:21:29;100444.53;;;18.03;66.80
48796;BME280;34607;48.520;-1.330;2023-05-20T17:23:58;100447.03;;;18.09;67.01
48796;BME280;34607;48.520;-1.330;2023-05-20T17:26:25;100451.25;;;18.23;67.14
48796;BME280;34607;48.520;-1.330;2023-05-20T17:28:52;100450.47;;;18.16;67.25
48796;BME280;34607;48.520;-1.330;2023-05-20T17:31:19;100453.19;;;18.10;67.19
48796;BME280;34607;48.520;-1.330;2023-05-20T17:33:46;100442.69;;;18.11;66.90
48796;BME280;34607;48.520;-1.330;2023-05-20T17:36:13;100444.50;;;18.05;66.31
48796;BME280;34607;48.520;-1.330;2023-05-20T17:38:41;100445.47;;;17.98;66.21
48796;BME280;34607;48.520;-1.330;2023-05-20T17:41:09;100446.34;;;17.98;66.58
48796;BME280;34607;48.520;-1.330;2023-05-20T17:43:36;100442.91;;;17.91;66.91
48796;BME280;34607;48.520;-1.330;2023-05-20T17:46:03;100437.72;;;17.87;66.92
48796;BME280;34607;48.520;-1.330;2023-05-20T17:48:30;100446.66;;;17.67;66.93
48796;BME280;34607;48.520;-1.330;2023-05-20T17:50:58;100445.88;;;17.59;67.22
48796;BME280;34607;48.520;-1.330;2023-05-20T17:53:25;100452.06;;;17.52;67.09
48796;BME280;34607;48.520;-1.330;2023-05-20T17:55:52;100448.63;;;17.48;67.63
48796;BME280;34607;48.520;-1.330;2023-05-20T17:58:20;100453.03;;;17.46;67.37
48796;BME280;34607;48.520;-1.330;2023-05-20T18:00:49;100426.19;;;17.26;66.99
48796;BME280;34607;48.520;-1.330;2023-05-20T18:03:16;100455.72;;;17.37;67.00
48796;BME280;34607;48.520;-1.330;2023-05-20T18:05:44;100460.22;;;17.22;66.98
48796;BME280;34607;48.520;-1.330;2023-05-20T18:08:12;100462.88;;;17.18;67.05
48796;BME280;34607;48.520;-1.330;2023-05-20T18:10:39;100455.88;;;17.17;66.99
48796;BME280;34607;48.520;-1.330;2023-05-20T18:13:06;100461.06;;;17.23;66.86
48796;BME280;34607;48.520;-1.330;2023-05-20T18:15:34;100461.09;;;17.20;67.62
48796;BME280;34607;48.520;-1.330;2023-05-20T18:18:01;100466.28;;;17.26;67.52
48796;BME280;34607;48.520;-1.330;2023-05-20T18:20:28;100456.78;;;17.17;67.59
48796;BME280;34607;48.520;-1.330;2023-05-20T18:22:55;100465.63;;;16.99;67.97
48796;BME280;34607;48.520;-1.330;2023-05-20T18:25:24;100463.91;;;17.00;67.92
48796;BME280;34607;48.520;-1.330;2023-05-20T18:27:51;100462.16;;;17.00;67.55
48796;BME280;34607;48.520;-1.330;2023-05-20T18:30:18;100466.56;;;16.92;67.18
48796;BME280;34607;48.520;-1.330;2023-05-20T18:32:46;100464.03;;;16.81;66.65
48796;BME280;34607;48.520;-1.330;2023-05-20T18:35:14;100461.44;;;16.74;66.87
48796;BME280;34607;48.520;-1.330;2023-05-20T18:37:41;100477.13;;;16.78;67.09
48796;BME280;34607;48.520;-1.330;2023-05-20T18:40:08;100476.28;;;16.70;66.82
48796;BME280;34607;48.520;-1.330;2023-05-20T18:42:36;100486.75;;;16.70;66.69
48796;BME280;34607;48.520;-1.330;2023-05-20T18:45:03;100475.44;;;16.68;66.26
48796;BME280;34607;48.520;-1.330;2023-05-20T18:47:31;100485.94;;;16.62;66.17
48796;BME280;34607;48.520;-1.330;2023-05-20T18:49:59;100483.31;;;16.65;65.74
48796;BME280;34607;48.520;-1.330;2023-05-20T18:52:26;100475.50;;;16.59;66.02
48796;BME280;34607;48.520;-1.330;2023-05-20T18:54:53;100485.06;;;16.60;66.32
48796;BME280;34607;48.520;-1.330;2023-05-20T18:57:20;100492.91;;;16.61;66.35
48796;BME280;34607;48.520;-1.330;2023-05-20T18:59:48;100488.53;;;16.62;66.75
48796;BME280;34607;48.520;-1.330;2023-05-20T19:02:15;100492.09;;;16.53;66.63
48796;BME280;34607;48.520;-1.330;2023-05-20T19:04:42;100488.63;;;16.48;66.79
48796;BME280;34607;48.520;-1.330;2023-05-20T19:07:10;100486.94;;;16.39;66.88
48796;BME280;34607;48.520;-1.330;2023-05-20T19:09:37;100497.44;;;16.30;66.95
48796;BME280;34607;48.520;-1.330;2023-05-20T19:12:05;100497.47;;;16.25;66.18
48796;BME280;34607;48.520;-1.330;2023-05-20T19:14:32;100493.22;;;16.03;65.89
48796;BME280;34607;48.520;-1.330;2023-05-20T19:16:59;100485.38;;;15.95;65.79
48796;BME280;34607;48.520;-1.330;2023-05-20T19:19:26;100483.69;;;15.89;65.72
48796;BME280;34607;48.520;-1.330;2023-05-20T19:21:53;100484.56;;;15.85;65.74
48796;BME280;34607;48.520;-1.330;2023-05-20T19:24:22;100479.38;;;15.71;66.25
48796;BME280;34607;48.520;-1.330;2023-05-20T19:26:50;100473.25;;;15.72;66.32
48796;BME280;34607;48.520;-1.330;2023-05-20T19:29:17;100475.03;;;15.75;66.36
48796;BME280;34607;48.520;-1.330;2023-05-20T19:31:44;100481.97;;;15.71;66.73
48796;BME280;34607;48.520;-1.330;2023-05-20T19:34:11;100481.97;;;15.70;66.92
48796;BME280;34607;48.520;-1.330;2023-05-20T19:36:38;100475.91;;;15.63;67.10
48796;BME280;34607;48.520;-1.330;2023-05-20T19:39:07;100482.88;;;15.57;67.23
48796;BME280;34607;48.520;-1.330;2023-05-20T19:41:35;100481.13;;;15.57;67.46
48796;BME280;34607;48.520;-1.330;2023-05-20T19:44:04;100487.22;;;15.54;67.61
48796;BME280;34607;48.520;-1.330;2023-05-20T19:46:31;100487.25;;;15.38;68.28
48796;BME280;34607;48.520;-1.330;2023-05-20T19:48:58;100484.63;;;15.48;68.25
48796;BME280;34607;48.520;-1.330;2023-05-20T19:51:25;100488.09;;;15.49;68.54
48796;BME280;34607;48.520;-1.330;2023-05-20T19:53:52;100488.13;;;15.30;68.73
48796;BME280;34607;48.520;-1.330;2023-05-20T19:56:19;100485.53;;;15.27;69.07
48796;BME280;34607;48.520;-1.330;2023-05-20T19:58:50;100485.53;;;15.24;69.71